Tahitian Princess — ZCDD8 — position and weather

sailwx.info

Track history (hours):
 
Tides and Currents Weather Stations Pressure Air Temp Water Temp Dewpoint Dewpoint Depression Visibility Wind Speed Wind Dir Waves Ship Positions

Tahitian Princess

Operator: P & O Irish Sea Ltd

Last reported at 2017-May-26 23:21 UTC. Time now 2017-May-27 02:12 UTC.
Position N 53°35' W 003°59'.

Length 167 m; draft 5.8 m.

Type: Passenger vessel. MMSI: 310362000.

Date/timePositionNaut miles runAvg speedWind from/ knotsBaromVisibWave heightAir tempDewpointWater temp
2017-May-26 23:21N 53°35' W 003°59'618.0
2017-May-26 23:00N 53°34' W 003°48'917.3
2017-May-26 22:30N 53°33' W 003°34'917.4
2017-May-26 22:00N 53°32' W 003°19'816.0
2017-May-26 21:30N 53°31' W 003°06'5 9.6
2017-May-26 21:00N 53°27' W 003°01'0 0.5
2017-May-26 20:30N 53°27' W 003°01'0 0.4
2017-May-26 20:00N 53°27' W 003°01'0 0.0
2017-May-26 19:30N 53°27' W 003°01'0 0.0
2017-May-26 19:00N 53°27' W 003°01'0 0.0
2017-May-26 18:30N 53°27' W 003°01'0 0.0
2017-May-26 18:00N 53°27' W 003°01'0 0.0
2017-May-26 17:30N 53°27' W 003°01'0 0.0
2017-May-26 17:00N 53°27' W 003°01'0 0.0
2017-May-26 16:30N 53°27' W 003°01'0 0.0
2017-May-26 16:00N 53°27' W 003°01'0 0.9
2017-May-26 15:30N 53°27' W 003°01'0 0.4
2017-May-26 15:00N 53°27' W 003°01'1312.8
2017-May-26 14:00N 53°31' W 003°21'816.4
2017-May-26 13:30N 53°31' W 003°35'816.5
2017-May-26 13:00N 53°32' W 003°49'918.9
2017-May-26 12:31N 53°33' W 004°05'3 0.2
2017-May-25 23:04N 53°35' W 004°05'218.7
2017-May-25 22:59N 53°35' W 004°02'918.3
2017-May-25 22:30N 53°34' W 003°48'917.6
2017-May-25 22:00N 53°33' W 003°33'917.5
2017-May-25 21:30N 53°32' W 003°18'815.7
2017-May-25 21:00N 53°30' W 003°06'4 8.1
2017-May-25 20:30N 53°27' W 003°01'0 0.9
2017-May-25 20:00N 53°27' W 003°01'0 0.0
2017-May-25 19:30N 53°27' W 003°01'0 0.0
2017-May-25 19:00N 53°27' W 003°01'0 0.0
2017-May-25 18:30N 53°27' W 003°01'0 0.0
2017-May-25 18:00N 53°27' W 003°01'0 0.0
2017-May-25 17:24N 53°27' W 003°01'0 0.0
2017-May-25 17:00N 53°27' W 003°01'0 0.0
2017-May-25 16:30N 53°27' W 003°01'0 0.0
2017-May-25 16:00N 53°27' W 003°01'0 0.9
2017-May-25 15:30N 53°27' W 003°01'1 1.3
2017-May-25 15:01N 53°27' W 003°02'612.7
2017-May-25 14:30N 53°32' W 003°10'1817.4
2017-May-25 13:30N 53°31' W 003°39'918.5
2017-May-25 13:00N 53°32' W 003°55'918.4
2017-May-25 12:30N 53°33' W 004°10'5419.1
2017-May-25 09:41N 53°25' W 005°40'520.5
2017-May-25 09:27N 53°24' W 005°48'919.9
2017-May-25 09:00N 53°21' W 006°01'612.5
2017-May-25 08:30N 53°21' W 006°12'1 1.0
2017-May-25 07:52N 53°21' W 006°13'0 0.0
2017-May-25 07:19N 53°21' W 006°13'0 0.0
2017-May-25 06:13N 53°21' W 006°13'0 0.0
2017-May-25 05:43N 53°21' W 006°13'0 0.0
2017-May-25 05:28N 53°21' W 006°13'0 0.0
2017-May-25 04:58N 53°21' W 006°13'0 0.0
2017-May-25 04:28N 53°21' W 006°13'0 0.8
2017-May-25 04:00N 53°21' W 006°13'510.4
2017-May-25 03:30N 53°20' W 006°04'1020.1
2017-May-25 03:00N 53°24' W 005°48'1020.6
2017-May-25 02:30N 53°27' W 005°31'1121.0
2017-May-25 01:59N 53°30' W 005°14'1122.2
2017-May-25 01:31N 53°33' W 004°57'1223.0
2017-May-25 00:59N 53°36' W 004°37'1322.9
2017-May-25 00:26N 53°36' W 004°16'1022.6
2017-May-24 23:59N 53°35' W 003°59'1421.8
2017-May-24 23:20N 53°33' W 003°35'721.1
2017-May-24 23:00N 53°33' W 003°23'917.7
2017-May-24 22:30N 53°32' W 003°09'611.0
2017-May-24 22:00N 53°28' W 003°03'2 3.4
2017-May-24 21:30N 53°26' W 003°01'1 1.4
2017-May-24 21:00N 53°27' W 003°01'0 0.8
2017-May-24 20:30N 53°27' W 003°01'0 0.0
2017-May-24 19:51N 53°27' W 003°01'0 0.0
2017-May-24 19:25N 53°27' W 003°01'0 0.0
2017-May-24 19:00N 53°27' W 003°01'0 0.0
2017-May-24 18:30N 53°27' W 003°01'0 0.0
2017-May-24 18:00N 53°27' W 003°01'0 0.0
2017-May-24 17:30N 53°27' W 003°01'0 0.0
2017-May-24 16:59N 53°27' W 003°01'0 0.0
2017-May-24 16:30N 53°27' W 003°01'0 0.2
2017-May-24 16:00N 53°27' W 003°01'0 0.8
2017-May-24 15:30N 53°27' W 003°01'1 1.7
2017-May-24 15:00N 53°27' W 003°02'612.9
2017-May-24 14:30N 53°32' W 003°10'1616.1
2017-May-24 13:30N 53°31' W 003°37'816.7
2017-May-24 13:00N 53°31' W 003°51'816.4
2017-May-24 12:30N 53°32' W 004°05'5617.8
2017-May-24 09:20N 53°24' W 005°39'720.3
2017-May-24 09:00N 53°23' W 005°50'1019.5
2017-May-24 08:30N 53°20' W 006°06'4 8.8
2017-May-24 08:00N 53°21' W 006°13'0 0.0
2017-May-24 07:30N 53°21' W 006°13'0 0.0
2017-May-24 07:00N 53°21' W 006°13'0 0.0
2017-May-24 06:30N 53°21' W 006°13'0 0.0
2017-May-24 06:00N 53°21' W 006°13'0 0.0
2017-May-24 05:30N 53°21' W 006°13'0 0.0
2017-May-24 05:00N 53°21' W 006°13'0 0.0
2017-May-24 04:30N 53°21' W 006°13'0 0.2
2017-May-24 04:00N 53°21' W 006°13'510.4
2017-May-24 03:30N 53°20' W 006°04'917.6
2017-May-24 03:01N 53°24' W 005°51'6317.4
2017-May-23 23:24N 53°35' W 004°07'819.4
2017-May-23 23:00N 53°35' W 003°54'918.7
2017-May-23 22:30N 53°34' W 003°38'918.5
2017-May-23 22:01N 53°33' W 003°23'917.9
2017-May-23 21:30N 53°32' W 003°08'713.7
2017-May-23 21:00N 53°26' W 003°01'0 0.4
2017-May-23 20:30N 53°27' W 003°01'1 1.8
2017-May-23 20:00N 53°27' W 003°01'0 0.0
2017-May-23 19:30N 53°27' W 003°01'0 0.0
2017-May-23 19:00N 53°27' W 003°01'0 0.0
2017-May-23 18:30N 53°27' W 003°01'0 0.0
2017-May-23 18:00N 53°27' W 003°01'0 0.0
2017-May-23 17:30N 53°27' W 003°01'0 0.0
2017-May-23 17:00N 53°27' W 003°01'0 0.0
2017-May-23 16:30N 53°27' W 003°01'0 0.4
2017-May-23 16:00N 53°27' W 003°01'0 0.6
2017-May-23 15:30N 53°27' W 003°01'2 3.3
2017-May-23 15:00N 53°28' W 003°03'612.5
2017-May-23 14:30N 53°31' W 003°12'1818.5
2017-May-23 13:30N 53°31' W 003°43'1019.2
2017-May-23 13:00N 53°32' W 003°59'918.4
2017-May-23 12:30N 53°33' W 004°15'5318.8
2017-May-23 09:39N 53°25' W 005°43'319.7
2017-May-23 09:30N 53°23' W 005°48'918.6
2017-May-23 09:00N 53°20' W 006°03'611.4
2017-May-23 08:30N 53°21' W 006°12'1 1.0
2017-May-23 08:00N 53°21' W 006°13'0 0.0
2017-May-23 07:30N 53°21' W 006°13'0 0.0
2017-May-23 07:00N 53°21' W 006°13'0 0.0
2017-May-23 06:30N 53°21' W 006°13'0 0.0
2017-May-23 06:00N 53°21' W 006°13'0 0.0
2017-May-23 05:30N 53°21' W 006°13'0 0.0
2017-May-23 05:00N 53°21' W 006°13'0 0.0
2017-May-23 04:30N 53°21' W 006°13'0 0.2
2017-May-23 04:00N 53°21' W 006°13'510.1
2017-May-23 03:30N 53°20' W 006°04'816.8
2017-May-23 03:00N 53°23' W 005°51'6115.6
2017-May-22 23:05N 53°36' W 004°11'619.7
2017-May-22 22:46N 53°35' W 003°60'519.5
2017-May-22 22:30N 53°35' W 003°52'1019.1
2017-May-22 22:00N 53°34' W 003°36'918.9
2017-May-22 21:30N 53°32' W 003°20'917.1
2017-May-22 21:00N 53°30' W 003°06'4 8.7
2017-May-22 20:30N 53°27' W 003°01'0 0.9
2017-May-22 20:00N 53°27' W 003°01'0 0.0
2017-May-22 19:30N 53°27' W 003°01'0 0.0
2017-May-22 19:00N 53°27' W 003°01'0 0.0
2017-May-22 18:30N 53°27' W 003°01'0 0.0
2017-May-22 18:00N 53°27' W 003°01'0 0.0
2017-May-22 17:30N 53°27' W 003°01'0 0.0
2017-May-22 17:00N 53°27' W 003°01'0 0.0
2017-May-22 16:30N 53°27' W 003°01'0 0.0
2017-May-22 16:00N 53°27' W 003°01'0 0.0
2017-May-22 15:30N 53°27' W 003°01'0 0.0
2017-May-22 15:00N 53°27' W 003°01'0 0.0
2017-May-22 14:00N 53°27' W 003°01'0 0.0
2017-May-22 13:31N 53°27' W 003°01'0 0.0
2017-May-22 13:00N 53°27' W 003°01'0 0.0
2017-May-22 12:30N 53°27' W 003°01'0 0.0
2017-May-22 12:00N 53°27' W 003°01'0 0.0
2017-May-22 11:30N 53°27' W 003°01'0 0.0
2017-May-22 10:59N 53°27' W 003°01'0 0.0
2017-May-22 10:30N 53°27' W 003°01'0 0.0
2017-May-22 10:00N 53°27' W 003°01'0 0.0
2017-May-22 09:30N 53°27' W 003°01'0 0.0
2017-May-22 09:00N 53°27' W 003°01'0 0.0
2017-May-22 08:30N 53°27' W 003°01'0 0.0
2017-May-22 08:00N 53°27' W 003°01'0 0.0
2017-May-22 07:31N 53°27' W 003°01'0 0.0
2017-May-22 07:00N 53°27' W 003°01'0 0.0
2017-May-22 06:30N 53°27' W 003°01'0 0.0
2017-May-22 06:00N 53°27' W 003°01'0 0.0
2017-May-22 05:30N 53°27' W 003°01'0 0.0
2017-May-22 05:00N 53°27' W 003°01'0 0.2
2017-May-22 04:30N 53°27' W 003°01'0 0.7
2017-May-22 04:01N 53°27' W 003°01'4 7.4
2017-May-22 03:30N 53°30' W 003°06'815.5
2017-May-22 03:00N 53°31' W 003°18'816.7
2017-May-22 02:30N 53°31' W 003°32'815.5
2017-May-22 02:00N 53°31' W 003°45'714.5
2017-May-22 01:30N 53°33' W 003°57'813.9
2017-May-22 00:58N 53°35' W 004°09'6215.4
2017-May-21 20:58N 53°23' W 005°51'817.0
2017-May-21 20:30N 53°20' W 006°03'611.8
2017-May-21 20:00N 53°21' W 006°13'0 0.2
2017-May-21 19:30N 53°21' W 006°13'0 0.0
2017-May-21 19:00N 53°21' W 006°13'0 0.0
2017-May-21 18:30N 53°21' W 006°13'0 0.0
2017-May-21 18:00N 53°21' W 006°13'0 0.0
2017-May-21 17:30N 53°21' W 006°13'0 0.0
2017-May-21 17:00N 53°21' W 006°13'0 0.0
2017-May-21 16:30N 53°21' W 006°13'0 0.0
2017-May-21 16:00N 53°21' W 006°13'0 0.0
2017-May-21 15:30N 53°21' W 006°13'0 0.0
2017-May-21 15:00N 53°21' W 006°13'0 0.0
2017-May-21 14:00N 53°21' W 006°13'0 0.0
2017-May-21 13:30N 53°21' W 006°13'0 0.0
2017-May-21 13:00N 53°21' W 006°13'0 0.0
2017-May-21 12:30N 53°21' W 006°13'0 0.0
2017-May-21 12:00N 53°21' W 006°13'0 0.0
2017-May-21 11:30N 53°21' W 006°13'0 0.0
2017-May-21 11:00N 53°21' W 006°13'0 0.0
2017-May-21 10:30N 53°21' W 006°13'0 0.0
2017-May-21 10:00N 53°21' W 006°13'0 0.0
2017-May-21 09:30N 53°21' W 006°13'0 0.0
2017-May-21 09:00N 53°21' W 006°13'0 0.0
2017-May-21 08:30N 53°21' W 006°13'0 0.0
2017-May-21 08:00N 53°21' W 006°13'0 0.0
2017-May-21 07:30N 53°21' W 006°13'0 0.0
2017-May-21 07:00N 53°21' W 006°13'0 0.0
2017-May-21 06:30N 53°21' W 006°13'0 0.0
2017-May-21 06:00N 53°21' W 006°13'0 0.0
2017-May-21 05:30N 53°21' W 006°13'0 0.0
2017-May-21 05:00N 53°21' W 006°13'0 0.2
2017-May-21 04:30N 53°21' W 006°13'510.5
2017-May-21 04:00N 53°20' W 006°04'815.3
2017-May-21 03:30N 53°23' W 005°52'714.4
2017-May-21 03:00N 53°25' W 005°41'714.2
2017-May-21 02:30N 53°27' W 005°29'5813.7
2017-May-20 22:16N 53°35' W 003°52'515.8
2017-May-20 21:58N 53°34' W 003°44'715.7
2017-May-20 21:30N 53°33' W 003°32'816.3
2017-May-20 21:00N 53°32' W 003°19'816.0
2017-May-20 20:30N 53°30' W 003°05'4 7.6
2017-May-20 20:00N 53°27' W 003°01'0 0.9
2017-May-20 19:30N 53°27' W 003°01'0 0.0
2017-May-20 19:00N 53°27' W 003°01'0 0.0
2017-May-20 18:29N 53°27' W 003°01'0 0.0
2017-May-20 18:00N 53°27' W 003°01'0 0.0
2017-May-20 17:30N 53°27' W 003°01'0 0.0
2017-May-20 17:00N 53°27' W 003°01'0 0.0
2017-May-20 16:30N 53°27' W 003°01'0 0.0
2017-May-20 16:00N 53°27' W 003°01'0 0.5
2017-May-20 15:30N 53°27' W 003°01'0 0.7
2017-May-20 15:00N 53°27' W 003°01'510.3
2017-May-20 14:30N 53°31' W 003°07'1818.1
2017-May-20 13:30N 53°31' W 003°37'1019.7
2017-May-20 13:00N 53°32' W 003°54'1420.8
2017-May-20 12:20N 53°34' W 004°17'5219.7
2017-May-20 09:41N 53°25' W 005°43'620.5
2017-May-20 09:23N 53°23' W 005°53'718.6
2017-May-20 09:00N 53°20' W 006°04'510.4
2017-May-20 08:30N 53°21' W 006°13'0 0.7
2017-May-20 08:01N 53°21' W 006°13'0 0.0
2017-May-20 07:30N 53°21' W 006°13'0 0.0
2017-May-20 07:00N 53°21' W 006°13'0 0.0
2017-May-20 06:30N 53°21' W 006°13'0 0.0
2017-May-20 06:00N 53°21' W 006°13'0 0.0
2017-May-20 05:30N 53°21' W 006°13'0 0.0
2017-May-20 05:00N 53°21' W 006°13'0 0.0
2017-May-20 04:31N 53°21' W 006°13'0 0.2
2017-May-20 04:00N 53°21' W 006°13'510.4
2017-May-20 03:31N 53°20' W 006°04'917.6
2017-May-20 03:00N 53°24' W 005°51'6518.8
2017-May-19 23:33N 53°36' W 004°03'120.6
2017-May-19 23:30N 53°35' W 004°01'1120.7
2017-May-19 22:58N 53°34' W 003°42'920.7
2017-May-19 22:30N 53°33' W 003°27'1019.0
2017-May-19 22:00N 53°32' W 003°11'715.0
2017-May-19 21:30N 53°27' W 003°01'0 0.3
2017-May-19 21:00N 53°27' W 003°01'0 0.7
2017-May-19 20:30N 53°27' W 003°01'0 0.0
2017-May-19 20:00N 53°27' W 003°01'0 0.0
2017-May-19 19:30N 53°27' W 003°01'0 0.0
2017-May-19 19:00N 53°27' W 003°01'0 0.0
2017-May-19 18:30N 53°27' W 003°01'0 0.0
2017-May-19 18:00N 53°27' W 003°01'0 0.0
2017-May-19 17:30N 53°27' W 003°01'0 0.0
2017-May-19 17:00N 53°27' W 003°01'0 0.4
2017-May-19 16:30N 53°27' W 003°01'1 1.8
2017-May-19 16:00N 53°27' W 003°01'0 0.3
2017-May-19 15:30N 53°26' W 003°01'510.3
2017-May-19 15:00N 53°30' W 003°06'1515.3
2017-May-19 14:00N 53°31' W 003°32'816.1
2017-May-19 13:30N 53°31' W 003°45'815.9
2017-May-19 13:00N 53°31' W 003°59'815.7
2017-May-19 12:30N 53°33' W 004°12'816.2
2017-May-19 12:00N 53°35' W 004°25'4716.4
2017-May-19 09:08N 53°25' W 005°42'417.2
2017-May-19 08:53N 53°23' W 005°48'717.9
2017-May-19 08:29N 53°21' W 005°59'714.8
2017-May-19 08:00N 53°21' W 006°11'1 1.9
2017-May-19 07:30N 53°21' W 006°13'0 0.0
2017-May-19 07:01N 53°21' W 006°13'0 0.0
2017-May-19 06:31N 53°21' W 006°13'0 0.0
2017-May-19 06:01N 53°21' W 006°13'0 0.0
2017-May-19 05:31N 53°21' W 006°13'0 0.0
2017-May-19 05:00N 53°21' W 006°13'0 0.0
2017-May-19 04:30N 53°21' W 006°13'0 0.2
2017-May-19 04:00N 53°21' W 006°13'510.8
2017-May-19 03:30N 53°20' W 006°04'917.8
2017-May-19 03:01N 53°24' W 005°50'6615.9
2017-May-18 22:53N 53°35' W 004°02'718.8
2017-May-18 22:29N 53°34' W 003°49'919.0
2017-May-18 22:00N 53°33' W 003°34'1019.0
2017-May-18 21:30N 53°32' W 003°18'816.3
2017-May-18 21:00N 53°29' W 003°05'3 6.9
2017-May-18 20:30N 53°27' W 003°01'0 0.9
2017-May-18 20:00N 53°27' W 003°01'0 0.0
2017-May-18 19:30N 53°27' W 003°01'0 0.0
2017-May-18 19:00N 53°27' W 003°01'0 0.0
2017-May-18 18:30N 53°27' W 003°01'0 0.0
2017-May-18 18:00N 53°27' W 003°01'0 0.0
2017-May-18 17:30N 53°27' W 003°01'0 0.0
2017-May-18 17:00N 53°27' W 003°01'0 0.0
2017-May-18 16:30N 53°27' W 003°01'0 0.0
2017-May-18 16:00N 53°27' W 003°01'0 0.3
2017-May-18 15:30N 53°27' W 003°01'0 1.0
2017-May-18 15:00N 53°27' W 003°01'510.2
2017-May-18 14:30N 53°31' W 003°07'1717.5
2017-May-18 13:30N 53°31' W 003°36'917.6
2017-May-18 13:00N 53°32' W 003°51'917.7
2017-May-18 12:29N 53°34' W 004°06'5918.5
2017-May-18 09:19N 53°25' W 005°43'618.6
2017-May-18 08:59N 53°23' W 005°53'817.4
2017-May-18 08:31N 53°20' W 006°06'4 8.1
2017-May-18 08:00N 53°21' W 006°13'0 0.0
2017-May-18 07:20N 53°21' W 006°13'0 0.0
2017-May-18 06:44N 53°21' W 006°13'0 0.0
2017-May-18 06:30N 53°21' W 006°13'0 0.0
2017-May-18 06:00N 53°21' W 006°13'0 0.0
2017-May-18 05:30N 53°21' W 006°13'0 0.0
2017-May-18 05:00N 53°21' W 006°13'0 0.0
2017-May-18 04:30N 53°21' W 006°13'0 0.1
2017-May-18 04:01N 53°21' W 006°13'4 8.9
2017-May-18 03:30N 53°20' W 006°06'917.0
2017-May-18 03:00N 53°24' W 005°52'816.2
2017-May-18 02:31N 53°27' W 005°40'5516.2
2017-May-17 23:07N 53°36' W 004°09'417.2
2017-May-17 22:53N 53°35' W 004°02'717.9
2017-May-17 22:31N 53°35' W 003°51'918.0
2017-May-17 22:00N 53°33' W 003°35'918.3
2017-May-17 21:30N 53°32' W 003°20'817.2
2017-May-17 21:01N 53°31' W 003°06'5 9.5
2017-May-17 20:30N 53°27' W 003°01'0 0.9
2017-May-17 20:00N 53°27' W 003°01'0 0.0
2017-May-17 19:28N 53°27' W 003°01'0 0.0
2017-May-17 18:58N 53°27' W 003°01'0 0.0
2017-May-17 18:25N 53°27' W 003°01'0 0.0
2017-May-17 17:55N 53°27' W 003°01'0 0.0
2017-May-17 17:25N 53°27' W 003°01'0 0.0
2017-May-17 16:58N 53°27' W 003°01'0 0.0
2017-May-17 16:13N 53°27' W 003°01'0 0.0
2017-May-17 15:55N 53°27' W 003°01'0 0.3
2017-May-17 15:28N 53°27' W 003°01'0 0.9
2017-May-17 14:59N 53°27' W 003°01'510.5
2017-May-17 14:30N 53°31' W 003°07'1717.5
2017-May-17 13:30N 53°31' W 003°36'917.5
2017-May-17 13:00N 53°31' W 003°50'917.2
2017-May-17 12:30N 53°32' W 004°05'816.6
2017-May-17 12:00N 53°33' W 004°19'5317.5
2017-May-17 09:00N 53°24' W 005°46'918.7
2017-May-17 08:30N 53°21' W 006°00'713.7
2017-May-17 08:00N 53°21' W 006°12'1 1.5
2017-May-17 07:30N 53°21' W 006°13'0 0.0
2017-May-17 07:00N 53°21' W 006°13'0 0.0
2017-May-17 06:30N 53°21' W 006°13'0 0.0
2017-May-17 06:00N 53°21' W 006°13'0 0.0
2017-May-17 05:30N 53°21' W 006°13'0 0.0
2017-May-17 05:00N 53°21' W 006°13'0 0.0
2017-May-17 04:30N 53°21' W 006°13'0 0.2
2017-May-17 04:00N 53°21' W 006°13'510.2
2017-May-17 03:30N 53°20' W 006°04'917.9
2017-May-17 03:00N 53°24' W 005°51'917.9
2017-May-17 02:30N 53°26' W 005°36'4818.1
2017-May-16 23:53N 53°37' W 004°18'616.5
2017-May-16 23:30N 53°36' W 004°07'  
Track history (hours):
 
Tides and Currents Weather Stations Pressure Air Temp Water Temp Dewpoint Dewpoint Depression Visibility Wind Speed Wind Dir Waves Ship Positions

Tahitian Princess

Operator: P & O Irish Sea Ltd

Last reported at 2017-May-26 23:21 UTC. Time now 2017-May-27 02:12 UTC.
Position N 53°35' W 003°59'.

Length 167 m; draft 5.8 m.

Type: Passenger vessel. MMSI: 310362000.

Date/timePositionNaut miles runAvg speedWind from/ knotsBaromVisibWave heightAir tempDewpointWater temp
2017-May-26 23:21N 53°35' W 003°59'618.0
2017-May-26 23:00N 53°34' W 003°48'917.3
2017-May-26 22:30N 53°33' W 003°34'917.4
2017-May-26 22:00N 53°32' W 003°19'816.0
2017-May-26 21:30N 53°31' W 003°06'5 9.6
2017-May-26 21:00N 53°27' W 003°01'0 0.5
2017-May-26 20:30N 53°27' W 003°01'0 0.4
2017-May-26 20:00N 53°27' W 003°01'0 0.0
2017-May-26 19:30N 53°27' W 003°01'0 0.0
2017-May-26 19:00N 53°27' W 003°01'0 0.0
2017-May-26 18:30N 53°27' W 003°01'0 0.0
2017-May-26 18:00N 53°27' W 003°01'0 0.0
2017-May-26 17:30N 53°27' W 003°01'0 0.0
2017-May-26 17:00N 53°27' W 003°01'0 0.0
2017-May-26 16:30N 53°27' W 003°01'0 0.0
2017-May-26 16:00N 53°27' W 003°01'0 0.9
2017-May-26 15:30N 53°27' W 003°01'0 0.4
2017-May-26 15:00N 53°27' W 003°01'1312.8
2017-May-26 14:00N 53°31' W 003°21'816.4
2017-May-26 13:30N 53°31' W 003°35'816.5
2017-May-26 13:00N 53°32' W 003°49'918.9
2017-May-26 12:31N 53°33' W 004°05'3 0.2
2017-May-25 23:04N 53°35' W 004°05'218.7
2017-May-25 22:59N 53°35' W 004°02'918.3
2017-May-25 22:30N 53°34' W 003°48'917.6
2017-May-25 22:00N 53°33' W 003°33'917.5
2017-May-25 21:30N 53°32' W 003°18'815.7
2017-May-25 21:00N 53°30' W 003°06'4 8.1
2017-May-25 20:30N 53°27' W 003°01'0 0.9
2017-May-25 20:00N 53°27' W 003°01'0 0.0
2017-May-25 19:30N 53°27' W 003°01'0 0.0
2017-May-25 19:00N 53°27' W 003°01'0 0.0
2017-May-25 18:30N 53°27' W 003°01'0 0.0
2017-May-25 18:00N 53°27' W 003°01'0 0.0
2017-May-25 17:24N 53°27' W 003°01'0 0.0
2017-May-25 17:00N 53°27' W 003°01'0 0.0
2017-May-25 16:30N 53°27' W 003°01'0 0.0
2017-May-25 16:00N 53°27' W 003°01'0 0.9
2017-May-25 15:30N 53°27' W 003°01'1 1.3
2017-May-25 15:01N 53°27' W 003°02'612.7
2017-May-25 14:30N 53°32' W 003°10'1817.4
2017-May-25 13:30N 53°31' W 003°39'918.5
2017-May-25 13:00N 53°32' W 003°55'918.4
2017-May-25 12:30N 53°33' W 004°10'5419.1
2017-May-25 09:41N 53°25' W 005°40'520.5
2017-May-25 09:27N 53°24' W 005°48'919.9
2017-May-25 09:00N 53°21' W 006°01'612.5
2017-May-25 08:30N 53°21' W 006°12'1 1.0
2017-May-25 07:52N 53°21' W 006°13'0 0.0
2017-May-25 07:19N 53°21' W 006°13'0 0.0
2017-May-25 06:13N 53°21' W 006°13'0 0.0
2017-May-25 05:43N 53°21' W 006°13'0 0.0
2017-May-25 05:28N 53°21' W 006°13'0 0.0
2017-May-25 04:58N 53°21' W 006°13'0 0.0
2017-May-25 04:28N 53°21' W 006°13'0 0.8
2017-May-25 04:00N 53°21' W 006°13'510.4
2017-May-25 03:30N 53°20' W 006°04'1020.1
2017-May-25 03:00N 53°24' W 005°48'1020.6
2017-May-25 02:30N 53°27' W 005°31'1121.0
2017-May-25 01:59N 53°30' W 005°14'1122.2
2017-May-25 01:31N 53°33' W 004°57'1223.0
2017-May-25 00:59N 53°36' W 004°37'1322.9
2017-May-25 00:26N 53°36' W 004°16'1022.6
2017-May-24 23:59N 53°35' W 003°59'1421.8
2017-May-24 23:20N 53°33' W 003°35'721.1
2017-May-24 23:00N 53°33' W 003°23'917.7
2017-May-24 22:30N 53°32' W 003°09'611.0
2017-May-24 22:00N 53°28' W 003°03'2 3.4
2017-May-24 21:30N 53°26' W 003°01'1 1.4
2017-May-24 21:00N 53°27' W 003°01'0 0.8
2017-May-24 20:30N 53°27' W 003°01'0 0.0
2017-May-24 19:51N 53°27' W 003°01'0 0.0
2017-May-24 19:25N 53°27' W 003°01'0 0.0
2017-May-24 19:00N 53°27' W 003°01'0 0.0
2017-May-24 18:30N 53°27' W 003°01'0 0.0
2017-May-24 18:00N 53°27' W 003°01'0 0.0
2017-May-24 17:30N 53°27' W 003°01'0 0.0
2017-May-24 16:59N 53°27' W 003°01'0 0.0
2017-May-24 16:30N 53°27' W 003°01'0 0.2
2017-May-24 16:00N 53°27' W 003°01'0 0.8
2017-May-24 15:30N 53°27' W 003°01'1 1.7
2017-May-24 15:00N 53°27' W 003°02'612.9
2017-May-24 14:30N 53°32' W 003°10'1616.1
2017-May-24 13:30N 53°31' W 003°37'816.7
2017-May-24 13:00N 53°31' W 003°51'816.4
2017-May-24 12:30N 53°32' W 004°05'5617.8
2017-May-24 09:20N 53°24' W 005°39'720.3
2017-May-24 09:00N 53°23' W 005°50'1019.5
2017-May-24 08:30N 53°20' W 006°06'4 8.8
2017-May-24 08:00N 53°21' W 006°13'0 0.0
2017-May-24 07:30N 53°21' W 006°13'0 0.0
2017-May-24 07:00N 53°21' W 006°13'0 0.0
2017-May-24 06:30N 53°21' W 006°13'0 0.0
2017-May-24 06:00N 53°21' W 006°13'0 0.0
2017-May-24 05:30N 53°21' W 006°13'0 0.0
2017-May-24 05:00N 53°21' W 006°13'0 0.0
2017-May-24 04:30N 53°21' W 006°13'0 0.2
2017-May-24 04:00N 53°21' W 006°13'510.4
2017-May-24 03:30N 53°20' W 006°04'917.6
2017-May-24 03:01N 53°24' W 005°51'6317.4
2017-May-23 23:24N 53°35' W 004°07'819.4
2017-May-23 23:00N 53°35' W 003°54'918.7
2017-May-23 22:30N 53°34' W 003°38'918.5
2017-May-23 22:01N 53°33' W 003°23'917.9
2017-May-23 21:30N 53°32' W 003°08'713.7
2017-May-23 21:00N 53°26' W 003°01'0 0.4
2017-May-23 20:30N 53°27' W 003°01'1 1.8
2017-May-23 20:00N 53°27' W 003°01'0 0.0
2017-May-23 19:30N 53°27' W 003°01'0 0.0
2017-May-23 19:00N 53°27' W 003°01'0 0.0
2017-May-23 18:30N 53°27' W 003°01'0 0.0
2017-May-23 18:00N 53°27' W 003°01'0 0.0
2017-May-23 17:30N 53°27' W 003°01'0 0.0
2017-May-23 17:00N 53°27' W 003°01'0 0.0
2017-May-23 16:30N 53°27' W 003°01'0 0.4
2017-May-23 16:00N 53°27' W 003°01'0 0.6
2017-May-23 15:30N 53°27' W 003°01'2 3.3
2017-May-23 15:00N 53°28' W 003°03'612.5
2017-May-23 14:30N 53°31' W 003°12'1818.5
2017-May-23 13:30N 53°31' W 003°43'1019.2
2017-May-23 13:00N 53°32' W 003°59'918.4
2017-May-23 12:30N 53°33' W 004°15'5318.8
2017-May-23 09:39N 53°25' W 005°43'319.7
2017-May-23 09:30N 53°23' W 005°48'918.6
2017-May-23 09:00N 53°20' W 006°03'611.4
2017-May-23 08:30N 53°21' W 006°12'1 1.0
2017-May-23 08:00N 53°21' W 006°13'0 0.0
2017-May-23 07:30N 53°21' W 006°13'0 0.0
2017-May-23 07:00N 53°21' W 006°13'0 0.0
2017-May-23 06:30N 53°21' W 006°13'0 0.0
2017-May-23 06:00N 53°21' W 006°13'0 0.0
2017-May-23 05:30N 53°21' W 006°13'0 0.0
2017-May-23 05:00N 53°21' W 006°13'0 0.0
2017-May-23 04:30N 53°21' W 006°13'0 0.2
2017-May-23 04:00N 53°21' W 006°13'510.1
2017-May-23 03:30N 53°20' W 006°04'816.8
2017-May-23 03:00N 53°23' W 005°51'6115.6
2017-May-22 23:05N 53°36' W 004°11'619.7
2017-May-22 22:46N 53°35' W 003°60'519.5
2017-May-22 22:30N 53°35' W 003°52'1019.1
2017-May-22 22:00N 53°34' W 003°36'918.9
2017-May-22 21:30N 53°32' W 003°20'917.1
2017-May-22 21:00N 53°30' W 003°06'4 8.7
2017-May-22 20:30N 53°27' W 003°01'0 0.9
2017-May-22 20:00N 53°27' W 003°01'0 0.0
2017-May-22 19:30N 53°27' W 003°01'0 0.0
2017-May-22 19:00N 53°27' W 003°01'0 0.0
2017-May-22 18:30N 53°27' W 003°01'0 0.0
2017-May-22 18:00N 53°27' W 003°01'0 0.0
2017-May-22 17:30N 53°27' W 003°01'0 0.0
2017-May-22 17:00N 53°27' W 003°01'0 0.0
2017-May-22 16:30N 53°27' W 003°01'0 0.0
2017-May-22 16:00N 53°27' W 003°01'0 0.0
2017-May-22 15:30N 53°27' W 003°01'0 0.0
2017-May-22 15:00N 53°27' W 003°01'0 0.0
2017-May-22 14:00N 53°27' W 003°01'0 0.0
2017-May-22 13:31N 53°27' W 003°01'0 0.0
2017-May-22 13:00N 53°27' W 003°01'0 0.0
2017-May-22 12:30N 53°27' W 003°01'0 0.0
2017-May-22 12:00N 53°27' W 003°01'0 0.0
2017-May-22 11:30N 53°27' W 003°01'0 0.0
2017-May-22 10:59N 53°27' W 003°01'0 0.0
2017-May-22 10:30N 53°27' W 003°01'0 0.0
2017-May-22 10:00N 53°27' W 003°01'0 0.0
2017-May-22 09:30N 53°27' W 003°01'0 0.0
2017-May-22 09:00N 53°27' W 003°01'0 0.0
2017-May-22 08:30N 53°27' W 003°01'0 0.0
2017-May-22 08:00N 53°27' W 003°01'0 0.0
2017-May-22 07:31N 53°27' W 003°01'0 0.0
2017-May-22 07:00N 53°27' W 003°01'0 0.0
2017-May-22 06:30N 53°27' W 003°01'0 0.0
2017-May-22 06:00N 53°27' W 003°01'0 0.0
2017-May-22 05:30N 53°27' W 003°01'0 0.0
2017-May-22 05:00N 53°27' W 003°01'0 0.2
2017-May-22 04:30N 53°27' W 003°01'0 0.7
2017-May-22 04:01N 53°27' W 003°01'4 7.4
2017-May-22 03:30N 53°30' W 003°06'815.5
2017-May-22 03:00N 53°31' W 003°18'816.7
2017-May-22 02:30N 53°31' W 003°32'815.5
2017-May-22 02:00N 53°31' W 003°45'714.5
2017-May-22 01:30N 53°33' W 003°57'813.9
2017-May-22 00:58N 53°35' W 004°09'6215.4
2017-May-21 20:58N 53°23' W 005°51'817.0
2017-May-21 20:30N 53°20' W 006°03'611.8
2017-May-21 20:00N 53°21' W 006°13'0 0.2
2017-May-21 19:30N 53°21' W 006°13'0 0.0
2017-May-21 19:00N 53°21' W 006°13'0 0.0
2017-May-21 18:30N 53°21' W 006°13'0 0.0
2017-May-21 18:00N 53°21' W 006°13'0 0.0
2017-May-21 17:30N 53°21' W 006°13'0 0.0
2017-May-21 17:00N 53°21' W 006°13'0 0.0
2017-May-21 16:30N 53°21' W 006°13'0 0.0
2017-May-21 16:00N 53°21' W 006°13'0 0.0
2017-May-21 15:30N 53°21' W 006°13'0 0.0
2017-May-21 15:00N 53°21' W 006°13'0 0.0
2017-May-21 14:00N 53°21' W 006°13'0 0.0
2017-May-21 13:30N 53°21' W 006°13'0 0.0
2017-May-21 13:00N 53°21' W 006°13'0 0.0
2017-May-21 12:30N 53°21' W 006°13'0 0.0
2017-May-21 12:00N 53°21' W 006°13'0 0.0
2017-May-21 11:30N 53°21' W 006°13'0 0.0
2017-May-21 11:00N 53°21' W 006°13'0 0.0
2017-May-21 10:30N 53°21' W 006°13'0 0.0
2017-May-21 10:00N 53°21' W 006°13'0 0.0
2017-May-21 09:30N 53°21' W 006°13'0 0.0
2017-May-21 09:00N 53°21' W 006°13'0 0.0
2017-May-21 08:30N 53°21' W 006°13'0 0.0
2017-May-21 08:00N 53°21' W 006°13'0 0.0
2017-May-21 07:30N 53°21' W 006°13'0 0.0
2017-May-21 07:00N 53°21' W 006°13'0 0.0
2017-May-21 06:30N 53°21' W 006°13'0 0.0
2017-May-21 06:00N 53°21' W 006°13'0 0.0
2017-May-21 05:30N 53°21' W 006°13'0 0.0
2017-May-21 05:00N 53°21' W 006°13'0 0.2
2017-May-21 04:30N 53°21' W 006°13'510.5
2017-May-21 04:00N 53°20' W 006°04'815.3
2017-May-21 03:30N 53°23' W 005°52'714.4
2017-May-21 03:00N 53°25' W 005°41'714.2
2017-May-21 02:30N 53°27' W 005°29'5813.7
2017-May-20 22:16N 53°35' W 003°52'515.8
2017-May-20 21:58N 53°34' W 003°44'715.7
2017-May-20 21:30N 53°33' W 003°32'816.3
2017-May-20 21:00N 53°32' W 003°19'816.0
2017-May-20 20:30N 53°30' W 003°05'4 7.6
2017-May-20 20:00N 53°27' W 003°01'0 0.9
2017-May-20 19:30N 53°27' W 003°01'0 0.0
2017-May-20 19:00N 53°27' W 003°01'0 0.0
2017-May-20 18:29N 53°27' W 003°01'0 0.0
2017-May-20 18:00N 53°27' W 003°01'0 0.0
2017-May-20 17:30N 53°27' W 003°01'0 0.0
2017-May-20 17:00N 53°27' W 003°01'0 0.0
2017-May-20 16:30N 53°27' W 003°01'0 0.0
2017-May-20 16:00N 53°27' W 003°01'0 0.5
2017-May-20 15:30N 53°27' W 003°01'0 0.7
2017-May-20 15:00N 53°27' W 003°01'510.3
2017-May-20 14:30N 53°31' W 003°07'1818.1
2017-May-20 13:30N 53°31' W 003°37'1019.7
2017-May-20 13:00N 53°32' W 003°54'1420.8
2017-May-20 12:20N 53°34' W 004°17'5219.7
2017-May-20 09:41N 53°25' W 005°43'620.5
2017-May-20 09:23N 53°23' W 005°53'718.6
2017-May-20 09:00N 53°20' W 006°04'510.4
2017-May-20 08:30N 53°21' W 006°13'0 0.7
2017-May-20 08:01N 53°21' W 006°13'0 0.0
2017-May-20 07:30N 53°21' W 006°13'0 0.0
2017-May-20 07:00N 53°21' W 006°13'0 0.0
2017-May-20 06:30N 53°21' W 006°13'0 0.0
2017-May-20 06:00N 53°21' W 006°13'0 0.0
2017-May-20 05:30N 53°21' W 006°13'0 0.0
2017-May-20 05:00N 53°21' W 006°13'0 0.0
2017-May-20 04:31N 53°21' W 006°13'0 0.2
2017-May-20 04:00N 53°21' W 006°13'510.4
2017-May-20 03:31N 53°20' W 006°04'917.6
2017-May-20 03:00N 53°24' W 005°51'6518.8
2017-May-19 23:33N 53°36' W 004°03'120.6
2017-May-19 23:30N 53°35' W 004°01'1120.7
2017-May-19 22:58N 53°34' W 003°42'920.7
2017-May-19 22:30N 53°33' W 003°27'1019.0
2017-May-19 22:00N 53°32' W 003°11'715.0
2017-May-19 21:30N 53°27' W 003°01'0 0.3
2017-May-19 21:00N 53°27' W 003°01'0 0.7
2017-May-19 20:30N 53°27' W 003°01'0 0.0
2017-May-19 20:00N 53°27' W 003°01'0 0.0
2017-May-19 19:30N 53°27' W 003°01'0 0.0
2017-May-19 19:00N 53°27' W 003°01'0 0.0
2017-May-19 18:30N 53°27' W 003°01'0 0.0
2017-May-19 18:00N 53°27' W 003°01'0 0.0
2017-May-19 17:30N 53°27' W 003°01'0 0.0
2017-May-19 17:00N 53°27' W 003°01'0 0.4
2017-May-19 16:30N 53°27' W 003°01'1 1.8
2017-May-19 16:00N 53°27' W 003°01'0 0.3
2017-May-19 15:30N 53°26' W 003°01'510.3
2017-May-19 15:00N 53°30' W 003°06'1515.3
2017-May-19 14:00N 53°31' W 003°32'816.1
2017-May-19 13:30N 53°31' W 003°45'815.9
2017-May-19 13:00N 53°31' W 003°59'815.7
2017-May-19 12:30N 53°33' W 004°12'816.2
2017-May-19 12:00N 53°35' W 004°25'4716.4
2017-May-19 09:08N 53°25' W 005°42'417.2
2017-May-19 08:53N 53°23' W 005°48'717.9
2017-May-19 08:29N 53°21' W 005°59'714.8
2017-May-19 08:00N 53°21' W 006°11'1 1.9
2017-May-19 07:30N 53°21' W 006°13'0 0.0
2017-May-19 07:01N 53°21' W 006°13'0 0.0
2017-May-19 06:31N 53°21' W 006°13'0 0.0
2017-May-19 06:01N 53°21' W 006°13'0 0.0
2017-May-19 05:31N 53°21' W 006°13'0 0.0
2017-May-19 05:00N 53°21' W 006°13'0 0.0
2017-May-19 04:30N 53°21' W 006°13'0 0.2
2017-May-19 04:00N 53°21' W 006°13'510.8
2017-May-19 03:30N 53°20' W 006°04'917.8
2017-May-19 03:01N 53°24' W 005°50'6615.9
2017-May-18 22:53N 53°35' W 004°02'718.8
2017-May-18 22:29N 53°34' W 003°49'919.0
2017-May-18 22:00N 53°33' W 003°34'1019.0
2017-May-18 21:30N 53°32' W 003°18'816.3
2017-May-18 21:00N 53°29' W 003°05'3 6.9
2017-May-18 20:30N 53°27' W 003°01'0 0.9
2017-May-18 20:00N 53°27' W 003°01'0 0.0
2017-May-18 19:30N 53°27' W 003°01'0 0.0
2017-May-18 19:00N 53°27' W 003°01'0 0.0
2017-May-18 18:30N 53°27' W 003°01'0 0.0
2017-May-18 18:00N 53°27' W 003°01'0 0.0
2017-May-18 17:30N 53°27' W 003°01'0 0.0
2017-May-18 17:00N 53°27' W 003°01'0 0.0
2017-May-18 16:30N 53°27' W 003°01'0 0.0
2017-May-18 16:00N 53°27' W 003°01'0 0.3
2017-May-18 15:30N 53°27' W 003°01'0 1.0
2017-May-18 15:00N 53°27' W 003°01'510.2
2017-May-18 14:30N 53°31' W 003°07'1717.5
2017-May-18 13:30N 53°31' W 003°36'917.6
2017-May-18 13:00N 53°32' W 003°51'917.7
2017-May-18 12:29N 53°34' W 004°06'5918.5
2017-May-18 09:19N 53°25' W 005°43'618.6
2017-May-18 08:59N 53°23' W 005°53'817.4
2017-May-18 08:31N 53°20' W 006°06'4 8.1
2017-May-18 08:00N 53°21' W 006°13'0 0.0
2017-May-18 07:20N 53°21' W 006°13'0 0.0
2017-May-18 06:44N 53°21' W 006°13'0 0.0
2017-May-18 06:30N 53°21' W 006°13'0 0.0
2017-May-18 06:00N 53°21' W 006°13'0 0.0
2017-May-18 05:30N 53°21' W 006°13'0 0.0
2017-May-18 05:00N 53°21' W 006°13'0 0.0
2017-May-18 04:30N 53°21' W 006°13'0 0.1
2017-May-18 04:01N 53°21' W 006°13'4 8.9
2017-May-18 03:30N 53°20' W 006°06'917.0
2017-May-18 03:00N 53°24' W 005°52'816.2
2017-May-18 02:31N 53°27' W 005°40'5516.2
2017-May-17 23:07N 53°36' W 004°09'417.2
2017-May-17 22:53N 53°35' W 004°02'717.9
2017-May-17 22:31N 53°35' W 003°51'918.0
2017-May-17 22:00N 53°33' W 003°35'918.3
2017-May-17 21:30N 53°32' W 003°20'817.2
2017-May-17 21:01N 53°31' W 003°06'5 9.5
2017-May-17 20:30N 53°27' W 003°01'0 0.9
2017-May-17 20:00N 53°27' W 003°01'0 0.0
2017-May-17 19:28N 53°27' W 003°01'0 0.0
2017-May-17 18:58N 53°27' W 003°01'0 0.0
2017-May-17 18:25N 53°27' W 003°01'0 0.0
2017-May-17 17:55N 53°27' W 003°01'0 0.0
2017-May-17 17:25N 53°27' W 003°01'0 0.0
2017-May-17 16:58N 53°27' W 003°01'0 0.0
2017-May-17 16:13N 53°27' W 003°01'0 0.0
2017-May-17 15:55N 53°27' W 003°01'0 0.3
2017-May-17 15:28N 53°27' W 003°01'0 0.9
2017-May-17 14:59N 53°27' W 003°01'510.5
2017-May-17 14:30N 53°31' W 003°07'1717.5
2017-May-17 13:30N 53°31' W 003°36'917.5
2017-May-17 13:00N 53°31' W 003°50'917.2
2017-May-17 12:30N 53°32' W 004°05'816.6
2017-May-17 12:00N 53°33' W 004°19'5317.5
2017-May-17 09:00N 53°24' W 005°46'918.7
2017-May-17 08:30N 53°21' W 006°00'713.7
2017-May-17 08:00N 53°21' W 006°12'1 1.5
2017-May-17 07:30N 53°21' W 006°13'0 0.0
2017-May-17 07:00N 53°21' W 006°13'0 0.0
2017-May-17 06:30N 53°21' W 006°13'0 0.0
2017-May-17 06:00N 53°21' W 006°13'0 0.0
2017-May-17 05:30N 53°21' W 006°13'0 0.0
2017-May-17 05:00N 53°21' W 006°13'0 0.0
2017-May-17 04:30N 53°21' W 006°13'0 0.2
2017-May-17 04:00N 53°21' W 006°13'510.2
2017-May-17 03:30N 53°20' W 006°04'917.9
2017-May-17 03:00N 53°24' W 005°51'917.9
2017-May-17 02:30N 53°26' W 005°36'4818.1
2017-May-16 23:53N 53°37' W 004°18'616.5
2017-May-16 23:30N 53°36' W 004°07'  

Dump ship's entire track history